KDOV

Dover AFB Airport

Dover, Delaware, USA
METAR KDOV 231356Z AUTO 06006KT 2 1/2SM -RA BR OVC008 05/05 A3058 RMK AO2 VIS 2 1/2V3 DZE1256RAB21E41RAB54 CIG 006V008 CIG 005 RWY19 SLP359 P0000 T00500046 $
Observed Flight Rules
Feb-23 @ 13:56 UTC (28 minutes ago) Instrument Flight Rules
Wind Visibility Clouds Conditions
60° at 6 knots 2 1/2 miles
  • Overcast at 800' AGL
  • Light Rain
  • Mist
Temperatures Readings Precipitation
Current 5°C / 41°F
Dewpoint 5°C / 41°F
Humidity 100%
Altimeter 30.58" Hg
Pressure 1035.9 hPa
Elevation 9
Current Rain 0.005
METAR KDOV 231356Z AUTO 06006KT 2 1/2SM -RA BR OVC008 05/05 A3058 RMK AO2 VIS 2 1/2V3 DZE1256RAB21E41RAB54 CIG 006V008 CIG 005 RWY19 SLP359 P0000 T00500046 $
Observed Flight Rules
Feb-23 @ 13:56 UTC
(28 minutes ago)
IFR
Wind Visibility
60° at 6 knots 2 1/2 miles
Clouds
  • Overcast at 800' AGL
Conditions
  • Light Rain
  • Mist
Temperature Dewpoint
5°C / 41°F 5°C / 41°F
Humidity Altimeter Pressure
100% 30.58" Hg 1035.9 hPa
Current Rain
0.005